createdAt,value
2019-01-21T00:00:47.394Z,-1.40
2019-01-21T00:03:16.886Z,-1.40
2019-01-21T00:05:48.835Z,-1.40
2019-01-21T00:08:19.533Z,-1.40
2019-01-21T00:10:50.554Z,-1.40
2019-01-21T00:13:19.731Z,-1.50
2019-01-21T00:15:48.999Z,-1.50
2019-01-21T00:18:18.328Z,-1.50
2019-01-21T00:20:47.773Z,-1.40
2019-01-21T00:23:17.001Z,-1.30
2019-01-21T00:25:46.021Z,-1.40
2019-01-21T00:28:15.463Z,-1.30
2019-01-21T00:30:44.522Z,-1.30
2019-01-21T00:33:13.722Z,-1.40
2019-01-21T00:35:42.837Z,-1.40
2019-01-21T00:38:12.435Z,-1.30
2019-01-21T00:40:42.754Z,-1.40
2019-01-21T00:43:11.896Z,-1.30
2019-01-21T00:45:41.447Z,-1.30
2019-01-21T00:48:10.493Z,-1.40
2019-01-21T00:50:39.888Z,-1.40
2019-01-21T00:53:09.231Z,-1.30
2019-01-21T00:55:39.161Z,-1.50
2019-01-21T00:58:08.275Z,-1.50
2019-01-21T01:00:37.543Z,-1.40
2019-01-21T01:03:06.783Z,-1.40
2019-01-21T01:05:36.493Z,-1.50
2019-01-21T01:08:06.315Z,-1.40
2019-01-21T01:10:35.532Z,-1.50
2019-01-21T01:13:04.619Z,-1.50
2019-01-21T01:15:33.926Z,-1.40
2019-01-21T01:18:02.858Z,-1.40
2019-01-21T01:20:31.769Z,-1.40
2019-01-21T01:23:00.873Z,-1.40
2019-01-21T01:25:30.033Z,-1.40
2019-01-21T01:27:59.224Z,-1.40
2019-01-21T01:30:28.393Z,-1.50
2019-01-21T01:32:57.706Z,-1.40
2019-01-21T01:35:26.841Z,-1.40
2019-01-21T01:37:56.398Z,-1.50
2019-01-21T01:40:25.753Z,-1.50
2019-01-21T01:42:56.697Z,-1.60
2019-01-21T01:45:29.605Z,-1.50
2019-01-21T01:48:03.033Z,-1.40
2019-01-21T01:50:32.649Z,-1.40
2019-01-21T01:53:01.889Z,-1.40
2019-01-21T01:55:32.222Z,-1.40
2019-01-21T01:58:03.310Z,-1.40
2019-01-21T02:00:32.785Z,-1.40
2019-01-21T02:03:01.820Z,-1.40
2019-01-21T02:05:31.655Z,-1.30
2019-01-21T02:08:02.039Z,-1.30
2019-01-21T02:10:31.593Z,-1.30
2019-01-21T02:13:01.076Z,-1.40
2019-01-21T02:15:31.847Z,-1.30
2019-01-21T02:18:00.920Z,-1.30
2019-01-21T02:20:29.913Z,-1.40
2019-01-21T02:23:04.817Z,-1.40
2019-01-21T02:26:09.763Z,-1.40
2019-01-21T02:29:27.749Z,-1.50
2019-01-21T02:32:46.849Z,-1.50
2019-01-21T02:35:24.402Z,-1.40
2019-01-21T02:38:30.776Z,-1.50
2019-01-21T02:41:22.569Z,-1.50
2019-01-21T02:44:38.098Z,-1.50
2019-01-21T02:47:31.965Z,-1.50
2019-01-21T02:50:57.522Z,-1.50
2019-01-21T02:53:41.791Z,-1.50
2019-01-21T02:56:36.521Z,-1.60
2019-01-21T02:59:27.462Z,-1.80
2019-01-21T03:02:37.911Z,-1.70
2019-01-21T03:05:58.126Z,-1.70
2019-01-21T03:09:13.999Z,-1.70
2019-01-21T03:12:27.166Z,-1.80
2019-01-21T03:15:14.646Z,-1.80
2019-01-21T03:18:24.924Z,-1.80
2019-01-21T03:21:17.327Z,-1.70
2019-01-21T03:24:22.585Z,-1.70
2019-01-21T03:27:25.250Z,-1.70
2019-01-21T03:30:21.470Z,-1.80
2019-01-21T03:33:46.739Z,-1.80
2019-01-21T03:36:51.435Z,-1.70
2019-01-21T03:40:16.006Z,-1.70
2019-01-21T03:43:27.946Z,-1.80
2019-01-21T03:46:56.517Z,-1.80
2019-01-21T03:49:36.378Z,-1.90
2019-01-21T03:52:48.704Z,-1.80
2019-01-21T03:55:19.098Z,-1.80
2019-01-21T03:58:32.518Z,-1.80
2019-01-21T04:01:18.174Z,-1.90
2019-01-21T04:04:47.355Z,-1.80
2019-01-21T04:08:07.933Z,-1.80
2019-01-21T04:11:09.526Z,-1.70
2019-01-21T04:14:15.549Z,-1.70
2019-01-21T04:17:42.641Z,-1.80
2019-01-21T04:21:14.161Z,-1.90
2019-01-21T04:24:04.789Z,-1.80
2019-01-21T04:26:54.752Z,-1.70
2019-01-21T04:29:45.382Z,-1.70
2019-01-21T04:32:26.558Z,-1.60
2019-01-21T04:35:14.474Z,-1.70
2019-01-21T04:38:27.650Z,-1.70
2019-01-21T04:41:23.358Z,-1.80
2019-01-21T04:44:26.543Z,-1.70
2019-01-21T04:47:35.751Z,-1.70
2019-01-21T04:50:33.588Z,-1.60
2019-01-21T04:53:26.707Z,-1.60
2019-01-21T04:56:33.104Z,-1.80
2019-01-21T04:59:55.816Z,-1.80
2019-01-21T05:03:03.171Z,-1.70
2019-01-21T05:06:05.808Z,-1.70
2019-01-21T05:09:12.430Z,-1.60
2019-01-21T05:12:14.381Z,-1.60
2019-01-21T05:15:29.239Z,-1.60
2019-01-21T05:18:32.206Z,-1.60
2019-01-21T05:21:24.634Z,-1.70
2019-01-21T05:24:22.744Z,-1.60
2019-01-21T05:27:22.261Z,-1.60
2019-01-21T05:30:12.397Z,-1.60
2019-01-21T05:33:25.769Z,-1.60
2019-01-21T05:36:09.846Z,-1.70
2019-01-21T05:39:15.194Z,-1.80
2019-01-21T05:42:17.368Z,-1.80
2019-01-21T05:45:17.699Z,-1.70
2019-01-21T05:48:15.400Z,-1.70
2019-01-21T05:51:32.808Z,-1.60
2019-01-21T05:54:57.298Z,-1.60
2019-01-21T05:58:00.008Z,-1.60
2019-01-21T06:00:53.828Z,-1.70
2019-01-21T06:03:37.246Z,-1.70
2019-01-21T06:07:01.873Z,-1.70
2019-01-21T06:10:11.075Z,-1.70
2019-01-21T06:13:16.365Z,-1.70
2019-01-21T06:16:11.131Z,-1.60
2019-01-21T06:19:28.338Z,-1.60
2019-01-21T06:22:38.756Z,-1.60
2019-01-21T06:25:45.950Z,-1.70
2019-01-21T06:28:56.431Z,-1.70
2019-01-21T06:32:03.095Z,-1.70
2019-01-21T06:35:19.142Z,-1.70
2019-01-21T06:38:15.290Z,-1.70
2019-01-21T06:41:09.317Z,-1.70
2019-01-21T06:44:15.741Z,-1.70
2019-01-21T06:47:07.848Z,-1.60
2019-01-21T06:50:00.931Z,-1.60
2019-01-21T06:53:11.024Z,-1.60
2019-01-21T06:56:14.782Z,-1.50
2019-01-21T06:59:49.434Z,-1.60
2019-01-21T07:02:44.984Z,-1.50
2019-01-21T07:05:44.443Z,-1.60
2019-01-21T07:08:57.261Z,-1.50
2019-01-21T07:11:53.529Z,-1.50
2019-01-21T07:15:03.373Z,-1.60
2019-01-21T07:18:11.893Z,-1.70
2019-01-21T07:21:32.757Z,-1.80
2019-01-21T07:24:44.359Z,-1.80
2019-01-21T07:27:38.346Z,-1.80
2019-01-21T07:30:48.227Z,-1.90
2019-01-21T07:34:07.178Z,-1.90
2019-01-21T07:37:11.215Z,-1.80
2019-01-21T07:39:55.218Z,-1.80
2019-01-21T07:43:14.385Z,-1.80
2019-01-21T07:46:11.137Z,-1.70
2019-01-21T07:49:04.470Z,-1.70
2019-01-21T07:52:17.701Z,-1.50
2019-01-21T07:55:04.445Z,-1.40
2019-01-21T07:58:26.158Z,-1.40
2019-01-21T08:01:10.256Z,-1.40
2019-01-21T08:04:03.506Z,-1.40
2019-01-21T08:06:50.630Z,-1.40
2019-01-21T08:09:48.329Z,-1.30
2019-01-21T08:13:04.003Z,-1.40
2019-01-21T08:16:14.975Z,-1.30
2019-01-21T08:19:03.485Z,-1.30
2019-01-21T08:22:23.827Z,-1.30
2019-01-21T08:25:33.588Z,-1.40
2019-01-21T08:28:29.129Z,-1.30
2019-01-21T08:31:50.454Z,-1.40
2019-01-21T08:35:03.137Z,-1.30
2019-01-21T08:38:23.094Z,-1.30
2019-01-21T08:41:51.650Z,-1.10
2019-01-21T08:44:52.269Z,-1.10
2019-01-21T08:47:48.028Z,-1.00
2019-01-21T08:50:52.435Z,-0.90
2019-01-21T08:54:08.594Z,-0.90
2019-01-21T08:57:09.764Z,-0.90
2019-01-21T09:00:00.210Z,-0.70
2019-01-21T09:03:07.769Z,-0.70
2019-01-21T09:06:02.505Z,-0.60
2019-01-21T09:09:15.239Z,-0.50
2019-01-21T09:12:19.679Z,-0.30
2019-01-21T09:14:59.017Z,-0.30
2019-01-21T09:17:56.786Z,-0.20
2019-01-21T09:21:06.122Z,-0.10
2019-01-21T09:24:15.967Z,-0.10
2019-01-21T09:27:24.081Z,0.00
2019-01-21T09:30:45.686Z,0.00
2019-01-21T09:33:55.389Z,0.20
2019-01-21T09:36:46.016Z,0.20
2019-01-21T09:39:31.744Z,-0.10
2019-01-21T09:42:16.497Z,0.10
2019-01-21T09:45:08.941Z,0.20
2019-01-21T09:47:36.601Z,0.40
2019-01-21T09:50:06.694Z,0.70
2019-01-21T09:52:36.453Z,0.80
2019-01-21T09:55:06.666Z,0.90
2019-01-21T09:57:38.237Z,1.00
2019-01-21T10:00:13.769Z,1.00
2019-01-21T10:02:46.162Z,1.10
2019-01-21T10:05:17.071Z,1.10
2019-01-21T10:08:05.674Z,1.10
2019-01-21T10:11:04.465Z,1.00
2019-01-21T10:14:08.219Z,1.10
2019-01-21T10:17:08.881Z,1.20
2019-01-21T10:20:10.742Z,1.40
2019-01-21T10:23:01.087Z,1.40
2019-01-21T10:26:06.194Z,1.30
2019-01-21T10:29:25.645Z,1.30
2019-01-21T10:32:19.329Z,1.20
2019-01-21T10:35:13.899Z,1.10
2019-01-21T10:38:33.069Z,1.00
2019-01-21T10:41:10.320Z,1.20
2019-01-21T10:44:12.993Z,1.10
2019-01-21T10:47:11.098Z,1.20
2019-01-21T10:50:12.211Z,1.10
2019-01-21T10:53:25.714Z,1.00
2019-01-21T10:56:32.120Z,0.90
2019-01-21T10:59:29.949Z,1.00
2019-01-21T11:02:21.250Z,1.00
2019-01-21T11:05:16.001Z,1.00
2019-01-21T11:08:21.486Z,0.90
2019-01-21T11:10:59.975Z,1.00
2019-01-21T11:14:12.471Z,1.00
2019-01-21T11:17:12.919Z,0.90
2019-01-21T11:20:14.927Z,0.90
2019-01-21T11:22:57.177Z,1.00
2019-01-21T11:26:22.398Z,1.20
2019-01-21T11:29:17.971Z,1.50
2019-01-21T11:32:11.189Z,1.30
2019-01-21T11:35:15.827Z,1.30
2019-01-21T11:38:03.834Z,1.50
2019-01-21T11:41:04.674Z,1.30
2019-01-21T11:44:14.376Z,1.40
2019-01-21T11:47:27.773Z,1.20
2019-01-21T11:50:39.614Z,1.40
2019-01-21T11:53:31.696Z,1.40
2019-01-21T11:56:31.919Z,1.50
2019-01-21T11:59:09.234Z,1.60
2019-01-21T12:02:03.740Z,1.60
2019-01-21T12:05:25.158Z,1.70
2019-01-21T12:08:38.130Z,1.80
2019-01-21T12:11:47.562Z,1.90
2019-01-21T12:14:55.302Z,1.80
2019-01-21T12:18:26.737Z,1.70
2019-01-21T12:21:15.026Z,1.70
2019-01-21T12:24:12.634Z,1.70
2019-01-21T12:26:56.293Z,1.60
2019-01-21T12:30:11.577Z,1.70
2019-01-21T12:33:06.884Z,1.70
2019-01-21T12:35:45.318Z,1.80
2019-01-21T12:38:43.325Z,2.00
2019-01-21T12:41:34.589Z,1.80
2019-01-21T12:44:56.698Z,1.70
2019-01-21T12:47:41.781Z,1.70
2019-01-21T12:50:54.387Z,1.70
2019-01-21T12:53:57.102Z,1.60
2019-01-21T12:56:53.313Z,1.70
2019-01-21T13:00:06.212Z,1.80
2019-01-21T13:03:19.613Z,1.90
2019-01-21T13:06:19.758Z,1.90
2019-01-21T13:09:15.168Z,1.70
2019-01-21T13:12:16.746Z,1.60
2019-01-21T13:15:21.924Z,1.40
2019-01-21T13:18:44.281Z,1.30
2019-01-21T13:21:52.939Z,1.30
2019-01-21T13:24:47.861Z,1.10
2019-01-21T13:27:45.721Z,1.10
2019-01-21T13:30:38.510Z,1.10
2019-01-21T13:33:38.030Z,1.10
2019-01-21T13:36:25.978Z,1.20
2019-01-21T13:39:32.456Z,1.10
2019-01-21T13:42:12.953Z,1.20
2019-01-21T13:45:28.421Z,1.10
2019-01-21T13:48:54.822Z,1.00
2019-01-21T13:52:04.765Z,0.90
2019-01-21T13:54:48.643Z,1.00
2019-01-21T13:57:39.082Z,0.90
2019-01-21T14:01:00.597Z,0.90
2019-01-21T14:04:07.185Z,0.90
2019-01-21T14:07:03.862Z,0.80
2019-01-21T14:09:53.346Z,0.70
2019-01-21T14:12:43.770Z,0.70
2019-01-21T14:15:39.722Z,0.70
2019-01-21T14:18:43.132Z,0.70
2019-01-21T14:21:43.132Z,0.80
2019-01-21T14:24:36.425Z,0.70
2019-01-21T14:27:38.387Z,0.60
2019-01-21T14:30:32.693Z,0.60
2019-01-21T14:33:40.093Z,0.40
2019-01-21T14:36:39.386Z,0.40
2019-01-21T14:39:31.601Z,0.40
2019-01-21T14:42:28.770Z,0.20
2019-01-21T14:45:35.550Z,0.20
2019-01-21T14:48:44.993Z,0.20
2019-01-21T14:51:50.100Z,0.20
2019-01-21T14:54:54.329Z,0.40
2019-01-21T14:57:56.105Z,0.40
2019-01-21T15:01:03.138Z,0.40
2019-01-21T15:03:55.853Z,0.30
2019-01-21T15:07:04.178Z,0.10
2019-01-21T15:10:29.223Z,-0.10
2019-01-21T15:13:10.768Z,-0.30
2019-01-21T15:16:03.391Z,-0.10
2019-01-21T15:18:42.410Z,-0.10
2019-01-21T15:21:24.645Z,-0.10
2019-01-21T15:24:21.108Z,-0.10
2019-01-21T15:27:00.990Z,-0.10
2019-01-21T15:30:20.308Z,-0.10
2019-01-21T15:33:34.871Z,-0.10
2019-01-21T15:36:45.106Z,-0.20
2019-01-21T15:39:26.829Z,-0.20
2019-01-21T15:42:26.116Z,-0.20
2019-01-21T15:45:17.650Z,-0.20
2019-01-21T15:48:23.938Z,-0.20
2019-01-21T15:51:04.868Z,-0.30
2019-01-21T15:54:16.277Z,-0.30
2019-01-21T15:57:47.650Z,-0.40
2019-01-21T16:01:12.827Z,-0.50
2019-01-21T16:03:55.891Z,-0.60
2019-01-21T16:06:43.332Z,-0.60
2019-01-21T16:09:36.871Z,-0.70
2019-01-21T16:12:21.624Z,-0.70
2019-01-21T16:15:16.660Z,-0.80
2019-01-21T16:17:54.515Z,-0.80
2019-01-21T16:20:51.422Z,-0.80
2019-01-21T16:23:56.647Z,-0.70
2019-01-21T16:26:49.632Z,-0.70
2019-01-21T16:29:56.239Z,-0.80
2019-01-21T16:32:45.329Z,-0.80
2019-01-21T16:35:55.711Z,-0.90
2019-01-21T16:38:49.057Z,-0.90
2019-01-21T16:41:41.886Z,-0.90
2019-01-21T16:44:11.147Z,-0.90
2019-01-21T16:46:40.189Z,-0.90
2019-01-21T16:49:09.078Z,-0.90
2019-01-21T16:51:38.077Z,-0.90
2019-01-21T16:54:07.756Z,-0.90
2019-01-21T16:57:04.789Z,-0.90
2019-01-21T16:59:34.010Z,-1.00
2019-01-21T17:02:03.212Z,-1.00
2019-01-21T17:04:32.824Z,-1.00
2019-01-21T17:07:03.779Z,-1.00
2019-01-21T17:09:32.945Z,-1.00
2019-01-21T17:12:02.191Z,-1.00
2019-01-21T17:14:32.074Z,-1.00
2019-01-21T17:17:02.121Z,-0.90
2019-01-21T17:19:31.485Z,-1.00
2019-01-21T17:22:00.911Z,-1.00
2019-01-21T17:24:30.202Z,-1.00
2019-01-21T17:26:59.320Z,-1.00
2019-01-21T17:29:28.537Z,-1.00
2019-01-21T17:31:57.523Z,-1.00
2019-01-21T17:34:26.723Z,-1.10
2019-01-21T17:36:56.606Z,-1.10
2019-01-21T17:39:25.811Z,-1.20
2019-01-21T17:41:55.145Z,-1.20
2019-01-21T17:44:24.356Z,-1.10
2019-01-21T17:46:54.339Z,-1.10
2019-01-21T17:49:25.098Z,-1.10
2019-01-21T17:51:54.154Z,-1.20
2019-01-21T17:54:23.229Z,-1.20
2019-01-21T17:56:52.709Z,-1.20
2019-01-21T17:59:24.202Z,-1.20
2019-01-21T18:01:53.445Z,-1.10
2019-01-21T18:04:22.438Z,-1.20
2019-01-21T18:06:51.397Z,-1.10
2019-01-21T18:09:20.592Z,-1.10
2019-01-21T18:11:49.864Z,-1.20
2019-01-21T18:14:19.385Z,-1.10
2019-01-21T18:16:48.361Z,-1.20
2019-01-21T18:19:17.825Z,-1.10
2019-01-21T18:21:47.043Z,-1.10
2019-01-21T18:24:16.751Z,-1.10
2019-01-21T18:26:45.909Z,-1.10
2019-01-21T18:29:15.128Z,-1.10
2019-01-21T18:31:44.366Z,-1.10
2019-01-21T18:34:13.617Z,-1.20
2019-01-21T18:36:42.964Z,-1.10
2019-01-21T18:39:13.506Z,-1.10
2019-01-21T18:41:43.022Z,-1.20
2019-01-21T18:44:12.438Z,-1.20
2019-01-21T18:46:42.973Z,-1.20
2019-01-21T18:49:12.255Z,-1.20
2019-01-21T18:51:46.650Z,-1.20
2019-01-21T18:54:13.804Z,-1.20
2019-01-21T18:56:42.908Z,-1.10
2019-01-21T18:59:12.210Z,-1.10
2019-01-21T19:01:41.397Z,-1.00
2019-01-21T19:04:10.572Z,-1.00
2019-01-21T19:06:39.718Z,-1.00
2019-01-21T19:09:09.601Z,-1.00
2019-01-21T19:11:38.761Z,-1.00
2019-01-21T19:14:07.845Z,-0.90
2019-01-21T19:16:37.565Z,-0.90
2019-01-21T19:19:07.281Z,-0.90
2019-01-21T19:21:36.539Z,-1.00
2019-01-21T19:24:06.691Z,-0.90
2019-01-21T19:26:36.093Z,-1.00
2019-01-21T19:29:05.091Z,-1.00
2019-01-21T19:31:34.349Z,-1.10
2019-01-21T19:34:03.994Z,-1.10
2019-01-21T19:36:33.241Z,-1.10
2019-01-21T19:39:02.390Z,-1.10
2019-01-21T19:41:31.583Z,-1.20
2019-01-21T19:44:00.706Z,-1.10
2019-01-21T19:46:30.306Z,-1.10
2019-01-21T19:49:00.017Z,-1.10
2019-01-21T19:51:29.274Z,-1.10
2019-01-21T19:53:58.877Z,-1.10
2019-01-21T19:56:28.435Z,-1.10
2019-01-21T19:58:57.377Z,-1.10
2019-01-21T20:01:26.617Z,-1.20
2019-01-21T20:03:56.392Z,-1.20
2019-01-21T20:06:26.203Z,-1.20
2019-01-21T20:08:56.005Z,-1.20
2019-01-21T20:11:25.209Z,-1.20
2019-01-21T20:13:55.543Z,-1.20
2019-01-21T20:16:24.633Z,-1.10
2019-01-21T20:18:53.857Z,-1.10
2019-01-21T20:21:23.094Z,-1.20
2019-01-21T20:23:52.499Z,-1.30
2019-01-21T20:26:21.582Z,-1.20
2019-01-21T20:28:51.200Z,-1.20
2019-01-21T20:31:20.128Z,-1.30
2019-01-21T20:33:52.256Z,-1.30
2019-01-21T20:36:22.599Z,-1.30
2019-01-21T20:38:53.810Z,-1.20
2019-01-21T20:41:23.043Z,-1.20
2019-01-21T20:43:52.238Z,-1.20
2019-01-21T20:46:21.706Z,-1.10
2019-01-21T20:48:53.087Z,-1.10
2019-01-21T20:51:22.309Z,-1.10
2019-01-21T20:53:53.638Z,-1.10
2019-01-21T20:56:22.964Z,-1.10
2019-01-21T20:58:53.248Z,-1.10
2019-01-21T21:01:22.487Z,-1.20
2019-01-21T21:03:51.698Z,-1.10
2019-01-21T21:06:21.501Z,-1.20
2019-01-21T21:08:50.898Z,-1.20
2019-01-21T21:11:22.048Z,-1.30
2019-01-21T21:13:52.139Z,-1.30
2019-01-21T21:16:21.779Z,-1.30
2019-01-21T21:18:50.930Z,-1.30
2019-01-21T21:21:21.741Z,-1.30
2019-01-21T21:23:52.945Z,-1.30
2019-01-21T21:26:21.949Z,-1.30
2019-01-21T21:28:51.718Z,-1.20
2019-01-21T21:31:20.925Z,-1.20
2019-01-21T21:33:51.793Z,-1.20
2019-01-21T21:36:21.713Z,-1.20
2019-01-21T21:38:51.105Z,-1.20
2019-01-21T21:41:20.341Z,-1.20
2019-01-21T21:43:50.299Z,-1.20
2019-01-21T21:46:20.146Z,-1.20
2019-01-21T21:48:50.405Z,-1.30
2019-01-21T21:51:21.015Z,-1.30
2019-01-21T21:53:50.074Z,-1.30
2019-01-21T21:56:19.908Z,-1.30
2019-01-21T21:58:52.701Z,-1.30
2019-01-21T22:01:24.384Z,-1.30
2019-01-21T22:03:52.821Z,-1.20
2019-01-21T22:06:24.042Z,-1.30
2019-01-21T22:08:53.466Z,-1.30
2019-01-21T22:11:22.874Z,-1.30
2019-01-21T22:13:52.334Z,-1.30
2019-01-21T22:16:21.445Z,-1.30
2019-01-21T22:18:51.531Z,-1.30
2019-01-21T22:21:20.929Z,-1.30
2019-01-21T22:23:50.171Z,-1.30
2019-01-21T22:26:19.313Z,-1.30
2019-01-21T22:28:49.307Z,-1.30
2019-01-21T22:31:19.804Z,-1.30
2019-01-21T22:33:49.043Z,-1.30
2019-01-21T22:36:18.516Z,-1.30
2019-01-21T22:38:48.410Z,-1.40
2019-01-21T22:41:17.887Z,-1.40
2019-01-21T22:43:48.616Z,-1.40
2019-01-21T22:46:17.691Z,-1.40
2019-01-21T22:48:48.749Z,-1.40
2019-01-21T22:51:17.881Z,-1.40
2019-01-21T22:53:47.685Z,-1.40
2019-01-21T22:56:17.295Z,-1.40
2019-01-21T22:58:47.239Z,-1.40
2019-01-21T23:01:31.520Z,-1.40
2019-01-21T23:04:01.094Z,-1.40
2019-01-21T23:06:30.461Z,-1.40
2019-01-21T23:09:00.241Z,-1.30
2019-01-21T23:11:30.066Z,-1.40
2019-01-21T23:13:59.099Z,-1.40
2019-01-21T23:16:28.598Z,-1.40
2019-01-21T23:18:59.161Z,-1.40
2019-01-21T23:21:28.380Z,-1.40
2019-01-21T23:23:57.990Z,-1.40
2019-01-21T23:26:27.705Z,-1.40
2019-01-21T23:28:57.382Z,-1.30
2019-01-21T23:31:28.439Z,-1.40
2019-01-21T23:33:57.495Z,-1.40
2019-01-21T23:36:27.848Z,-1.30
2019-01-21T23:38:57.493Z,-1.30
2019-01-21T23:41:26.829Z,-1.40
2019-01-21T23:43:56.263Z,-1.40
2019-01-21T23:46:27.122Z,-1.40
2019-01-21T23:48:56.625Z,-1.30
2019-01-21T23:51:25.985Z,-1.40
2019-01-21T23:53:55.291Z,-1.30
2019-01-21T23:56:26.586Z,-1.30
2019-01-21T23:58:56.018Z,-1.40
